Flight Track Log - Related Links

Times and Time Zones

All times are in EST time to prevent confusion due to time zone crossing. See the TCF5982 flight status page for this flight to view local times or setup timezone preferences in your user account.

Time Position Orientation Groundspeed Altitude Reporting Facility
EST Latitude Longitude Course Direction KTS MPH feet Rate Location/Type
Sun 08:48:42 PM 40.8167 -73.9000 266° West 160 184 3,200  Level New York TRACON
Sun 08:49:48 PM 40.8333 -73.9833 285° West 214 246 7,200 3,762 Climbing New York TRACON
Sun 08:50:48 PM 40.8500 -74.0667 285° West 239 275 11,100 3,200 Climbing New York TRACON
Sun 08:51:00 PM 40.7550 -74.3280 266° West  Level Estimated
Sun 08:51:48 PM 40.8500 -74.1500 270° West 259 298 13,600  Level New York TRACON
Sun 08:52:00 PM 40.7492 -74.4418 266° West  Level Estimated
Sun 08:52:42 PM 40.8500 -74.2500 270° West 309 356 15,600  Level New York TRACON
Sun 08:53:00 PM 40.7432 -74.5555 266° West  Level Estimated
Sun 08:53:42 PM 40.8500 -74.3667 270° West 321 369 17,100  Level New York TRACON
Sun 08:54:48 PM 40.8333 -74.4833 259° West 313 360 17,100  Level New York TRACON
Sun 08:55:48 PM 40.8333 -74.6000 270° West 314 361 17,100  Level New York TRACON
Sun 08:56:18 PM 40.8308 -74.6628 267° West 316 364 17,100 1,067 Level New York Center
Sun 08:57:18 PM 40.8247 -74.7803 266° West 321 369 18,700 2,100 Climbing New York Center
Sun 08:58:18 PM 40.8167 -74.8922 265° West 321 369 21,300 3,200 Climbing New York Center
Sun 08:59:18 PM 40.8108 -75.0042 266° West 321 369 25,100 3,200 Climbing New York Center
Sun 09:00:18 PM 40.8047 -75.1108 266° West 307 353 27,700 2,100 Climbing New York Center
Sun 09:01:18 PM 40.7967 -75.2144 264° West 297 342 29,300 1,300 Climbing New York Center
Sun 09:02:18 PM 40.7986 -75.3269 271° West 297 342 30,300 850 Climbing New York Center
Sun 09:03:18 PM 40.7758 -75.4350 254° West 297 342 31,000 350 Climbing New York Center
Sun 09:04:18 PM 40.7153 -75.5406 233° Southwest 321 369 31,000  Level New York Center
Sun 09:05:18 PM 40.6528 -75.6456 232° Southwest 349 402 31,000 850 Level New York Center
Sun 09:06:18 PM 40.6042 -75.7597 241° Southwest 360 414 32,700 1,200 Climbing New York Center
Sun 09:07:18 PM 40.5636 -75.8769 246° West 355 409 33,400 1,050 Climbing New York Center
Sun 09:08:18 PM 40.5167 -75.9964 243° Southwest 362 417 34,800 1,300 Climbing New York Center
Sun 09:09:18 PM 40.4761 -76.1133 246° West 362 417 36,000 600 Climbing New York Center
Sun 09:10:18 PM 40.4356 -76.2275 245° Southwest 357 411 36,000  Level New York Center
Sun 09:11:18 PM 40.4025 -76.3503 251° West 357 411 36,000  Level New York Center
Sun 09:12:18 PM 40.3858 -76.4825 261° West 357 411 36,000  Level New York Center
Sun 09:13:18 PM 40.3711 -76.6147 262° West 368 423 36,000  Level New York Center
Sun 09:14:18 PM 40.3558 -76.7525 262° West 373 429 36,000  Level New York Center
Sun 09:15:18 PM 40.3386 -76.8869 261° West 373 429 36,000  Level New York Center
Sun 09:16:18 PM 40.3233 -77.0192 261° West 378 435 36,000  Level New York Center
Sun 09:17:18 PM 40.3056 -77.1536 260° West 378 435 36,000  Level New York Center
Sun 09:18:18 PM 40.2881 -77.2856 260° West 378 435 36,000  Level New York Center
Sun 09:20:50 PM 40.2503 -77.6106 261° West 379 436 36,000  Level Cleveland Center
Sun 09:21:51 PM 40.2292 -77.7703 260° West 375 432 36,000  Level Cleveland Center
Sun 09:22:53 PM 40.2119 -77.9019 260° West 374 430 36,000  Level Cleveland Center
Sun 09:23:54 PM 40.1975 -78.0164 261° West 373 429 36,000  Level Cleveland Center
Sun 09:24:56 PM 40.1756 -78.1742 260° West 371 427 36,000  Level Cleveland Center
Sun 09:25:57 PM 40.1581 -78.3069 260° West 371 427 36,000  Level Cleveland Center
Sun 09:26:58 PM 40.1406 -78.4383 260° West 369 425 36,000  Level Cleveland Center
Sun 09:28:00 PM 40.1225 -78.5692 260° West 369 425 36,000  Level Cleveland Center
Sun 09:29:01 PM 40.1039 -78.7033 260° West 371 427 36,000  Level Cleveland Center
Sun 09:30:03 PM 40.0861 -78.8342 260° West 371 427 36,000  Level Cleveland Center
Sun 09:31:04 PM 40.0675 -78.9706 260° West 376 433 36,000 -195 Level Cleveland Center
Sun 09:32:06 PM 40.0472 -79.1139 260° West 373 429 35,600 -683 Descending Cleveland Center
Sun 09:33:07 PM 40.0294 -79.2389 260° West 356 410 34,600 -984 Descending Cleveland Center
Sun 09:34:08 PM 40.0131 -79.3561 260° West 335 386 33,600 -1,024 Descending Cleveland Center
Sun 09:35:10 PM 40.0047 -79.4767 265° West 336 387 32,500 -780 Descending Cleveland Center
Sun 09:36:11 PM 40.0069 -79.5961 271° West 334 384 32,000 -244 Descending Cleveland Center
Sun 09:37:13 PM 40.0089 -79.7186 271° West 334 384 32,000  Level Cleveland Center
Sun 09:38:14 PM 40.0103 -79.8678 271° West 340 391 32,000  Level Cleveland Center
Sun 09:39:15 PM 40.0119 -79.9931 271° West 344 396 32,000 -49 Level Cleveland Center
Sun 09:40:17 PM 40.0131 -80.1200 271° West 346 398 31,900 -585 Descending Cleveland Center
Sun 09:41:18 PM 40.0133 -80.2425 270° West 340 391 30,800 -1,230 Descending Cleveland Center
Sun 09:42:19 PM 40.0142 -80.3611 271° West 330 380 29,400 -1,268 Descending Cleveland Center
Sun 09:43:21 PM 40.0150 -80.4800 271° West 330 380 28,200 -1,171 Descending Cleveland Center
Sun 09:44:22 PM 40.0156 -80.5967 270° West 323 372 27,000 -1,230 Descending Cleveland Center
Sun 09:45:23 PM 40.0169 -80.7117 271° West 321 369 25,700 -1,220 Descending Cleveland Center
Sun 09:46:25 PM 40.0144 -80.8269 268° West 317 365 24,500 -1,176 Descending Cleveland Center
Sun 09:47:05 PM 40.0000 -80.8992 255° West 320 368 23,700 -1,307 Descending Indianapolis Center
Sun 09:48:06 PM 39.9764 -81.0275 257° West 314 361 22,300 -1,279 Descending Indianapolis Center
Sun 09:49:07 PM 39.9556 -81.1350 256° West 309 356 21,100 -1,122 Descending Indianapolis Center
Sun 09:50:09 PM 39.9350 -81.2367 255° West 298 343 20,000 -1,122 Descending Indianapolis Center
Sun 09:51:10 PM 39.9142 -81.3408 255° West 298 343 18,800 -1,131 Descending Indianapolis Center
Sun 09:52:11 PM 39.8939 -81.4431 256° West 297 342 17,700 -1,131 Descending Indianapolis Center
Sun 09:53:12 PM 39.8717 -81.5550 256° West 297 342 16,500 -1,463 Descending Indianapolis Center
Sun 09:54:14 PM 39.8517 -81.6567 256° West 296 341 14,700 -1,561 Descending Indianapolis Center
Sun 09:55:15 PM 39.8319 -81.7567 256° West 292 336 13,300 -1,377 Descending Indianapolis Center
Sun 09:56:16 PM 39.8119 -81.8572 256° West 290 334 11,900 -1,222 Descending Indianapolis Center
Sun 09:57:03 PM 39.7956 -81.9461 257° West 290 334 11,100 -984 Descending Indianapolis Center
Sun 09:57:17 PM 39.7917 -81.9592 249° West 290 334 10,900 -896 Descending Indianapolis Center
Sun 09:58:10 PM 39.7758 -82.0522 258° West 287 330 10,100 -968 Descending Indianapolis Center
Sun 09:58:19 PM 39.7733 -82.0603 248° West 290 334 9,900 -91 Descending Indianapolis Center
Sun 09:59:16 PM 39.8056 -82.1653 292° West 287 330 10,000 98 Climbing Indianapolis Center
Sun 09:59:20 PM 39.8039 -82.1558 103° East 286 329 10,000  Level Indianapolis Center
Sun 10:00:17 PM 39.8372 -82.2600 293° West 286 329 10,000  Level Indianapolis Center
Sun 10:00:21 PM 39.8336 -82.2517 119° Southeast 285 328 10,000  Level Indianapolis Center
Sun 10:01:18 PM 39.8661 -82.3569 292° West 286 329 10,000  Level Indianapolis Center
Sun 10:01:23 PM 39.8639 -82.3464 105° East 285 328 10,000 -714 Level Indianapolis Center
Sun 10:02:00 PM 39.8842 -82.4142 291° West 266 306 9,500 -1,869 Descending Indianapolis Center
Sun 10:02:24 PM 39.8956 -82.4467 295° West 254 292 8,100 -2,951 Descending Indianapolis Center
Sun 10:03:01 PM 39.9086 -82.4914 291° West 219 252 6,500 -2,656 Descending Indianapolis Center
Sun 10:03:25 PM 39.9183 -82.5208 293° West 229 264 5,400 -2,656 Descending Indianapolis Center
Sun 10:04:02 PM 39.9350 -82.5719 293° West 227 261 3,800 -2,164 Descending Indianapolis Center
Sun 10:04:26 PM 39.9425 -82.5978 291° West 229 264 3,200 -727 Descending Indianapolis Center
Sun 10:05:08 PM 39.9589 -82.6547 291° West 224 258 3,000 -197 Descending Indianapolis Center
Sun 10:05:27 PM 39.9656 -82.6700 300° West 225 259 3,000  Level Indianapolis Center
Sun 10:06:09 PM 39.9767 -82.7094 290° West 158 182 3,000  Level Indianapolis Center
Sun 10:06:28 PM 39.9817 -82.7228 296° West 186 214 3,000 -358 Level Indianapolis Center
Sun 10:07:16 PM 39.9928 -82.7636 290° West 130 150 2,600 -387 Descending Indianapolis Center
Sun 10:07:30 PM 39.9953 -82.7689 302° West 157 181 2,600 -600 Level Indianapolis Center
Sun 10:08:16 PM 39.9972 -82.8053 274° West 105 121 2,000 -689 Descending Indianapolis Center
Sun 10:08:31 PM 39.9989 -82.8092 299° West 133 153 1,900 -590 Descending Indianapolis Center
Sun 10:09:17 PM 39.9978 -82.8436 268° West 107 123 1,400 -590 Descending Indianapolis Center
Sun 10:09:32 PM 40.0003 -82.8475 310° West 116 133 1,300 -158 Descending Indianapolis Center
Sun 10:10:33 PM 40.0017 -82.8856 273° West 114 131 1,200 -98 Descending Indianapolis Center

Login

Don't have an account? Register now (free) for customized features, flight alerts, and more!